Terminal Aerodrome Forecast
Issued by NWS

Home | Current Version | Previous Version | Text Only | Print | Product List | Glossary On
Versions: 1 2 3 4 5 6 7 8 9 10 11 12 13 14 15 16 17
000
FTUS44 KOUN 290520
TAFGAG
TAF
KGAG 290520Z 2906/3006 15010KT P6SM SCT120
     FM290900 16010KT P6SM FEW080 SCT250
      TEMPO 2910/2914 4SM BR BKN010
     FM291400 13012KT P6SM SCT012 OVC025
      TEMPO 2916/2920 5SM -TSRA BR BKN009 OVC014CB
     FM292000 16010G17KT P6SM BKN050=

USA.gov is the U.S. government's official web portal to all federal, state and local government web resources and services.